createdAt,value
2022-11-24T00:01:09.791Z,1.27
2022-11-24T00:03:38.398Z,1.27
2022-11-24T00:06:08.560Z,1.27
2022-11-24T00:08:37.188Z,1.33
2022-11-24T00:11:06.638Z,1.70
2022-11-24T00:13:34.920Z,1.10
2022-11-24T00:16:30.129Z,1.30
2022-11-24T00:18:59.389Z,1.20
2022-11-24T00:21:28.444Z,1.40
2022-11-24T00:23:56.849Z,1.20
2022-11-24T00:26:27.288Z,1.20
2022-11-24T00:28:57.386Z,1.37
2022-11-24T00:31:25.740Z,1.40
2022-11-24T00:33:55.406Z,1.47
2022-11-24T00:36:24.690Z,1.10
2022-11-24T00:39:15.726Z,1.50
2022-11-24T00:41:43.699Z,1.23
2022-11-24T00:44:11.188Z,1.10
2022-11-24T00:46:38.956Z,1.50
2022-11-24T00:49:06.454Z,1.40
2022-11-24T00:51:34.123Z,1.30
2022-11-24T00:54:01.831Z,1.50
2022-11-24T00:56:29.921Z,1.30
2022-11-24T00:58:57.848Z,1.13
2022-11-24T01:01:27.304Z,1.30
2022-11-24T01:03:57.608Z,1.30
2022-11-24T01:06:26.603Z,1.30
2022-11-24T01:08:54.616Z,1.50
2022-11-24T01:11:51.282Z,1.10
2022-11-24T01:14:19.395Z,1.20
2022-11-24T01:16:46.707Z,1.20
2022-11-24T01:19:14.121Z,1.70
2022-11-24T01:21:41.518Z,1.47
2022-11-24T01:24:09.999Z,1.40
2022-11-24T01:26:37.938Z,1.70
2022-11-24T01:29:05.349Z,1.57
2022-11-24T01:31:33.078Z,1.40
2022-11-24T01:34:00.329Z,1.77
2022-11-24T01:36:27.671Z,1.60
2022-11-24T01:38:54.976Z,1.50
2022-11-24T01:41:24.506Z,1.37
2022-11-24T01:43:53.546Z,1.60
2022-11-24T01:46:42.148Z,1.43
2022-11-24T01:49:09.466Z,1.50
2022-11-24T01:51:42.340Z,1.50
2022-11-24T01:54:14.383Z,1.20
2022-11-24T01:56:44.343Z,1.60
2022-11-24T01:59:14.591Z,1.30
2022-11-24T02:01:42.166Z,1.20
2022-11-24T02:04:15.072Z,1.37
2022-11-24T02:06:45.421Z,1.30
2022-11-24T02:09:59.167Z,1.60
2022-11-24T02:12:27.431Z,1.60
2022-11-24T02:14:56.421Z,1.47
2022-11-24T02:17:23.948Z,1.43
2022-11-24T02:20:04.413Z,1.57
2022-11-24T02:23:13.568Z,1.40
2022-11-24T02:26:05.833Z,1.60
2022-11-24T02:28:33.924Z,1.50
2022-11-24T02:31:02.243Z,1.50
2022-11-24T02:33:30.001Z,1.50
2022-11-24T02:35:57.251Z,1.60
2022-11-24T02:38:32.984Z,1.60
2022-11-24T02:41:05.939Z,1.60
2022-11-24T02:43:38.759Z,1.70
2022-11-24T02:46:07.241Z,1.30
2022-11-24T02:48:34.492Z,1.30
2022-11-24T02:51:01.864Z,1.50
2022-11-24T02:53:29.214Z,1.37
2022-11-24T02:55:56.612Z,1.50
2022-11-24T02:58:24.082Z,1.50
2022-11-24T03:00:54.417Z,1.30
2022-11-24T03:03:22.270Z,1.20
2022-11-24T03:05:49.791Z,1.40
2022-11-24T03:08:17.279Z,1.23
2022-11-24T03:10:44.640Z,1.10
2022-11-24T03:13:12.192Z,1.33
2022-11-24T03:15:39.672Z,1.50
2022-11-24T03:18:07.022Z,1.30
2022-11-24T03:20:34.417Z,1.57
2022-11-24T03:23:01.812Z,1.27
2022-11-24T03:25:29.214Z,1.27
2022-11-24T03:27:58.256Z,1.23
2022-11-24T03:30:26.043Z,1.30
2022-11-24T03:32:53.993Z,1.60
2022-11-24T03:35:22.453Z,1.50
2022-11-24T03:37:50.086Z,1.40
2022-11-24T03:40:18.229Z,1.53
2022-11-24T03:42:45.539Z,1.13
2022-11-24T03:45:38.034Z,1.30
2022-11-24T03:47:59.993Z,1.67
2022-11-24T03:50:27.630Z,1.50
2022-11-24T03:52:54.841Z,1.57
2022-11-24T03:55:22.058Z,1.60
2022-11-24T03:57:49.656Z,1.57
2022-11-24T04:00:17.702Z,1.77
2022-11-24T04:02:45.062Z,1.90
2022-11-24T04:05:12.412Z,1.60
2022-11-24T04:07:39.910Z,1.50
2022-11-24T04:10:08.067Z,2.00
2022-11-24T04:12:44.506Z,1.90
2022-11-24T04:15:18.201Z,1.50
2022-11-24T04:17:46.810Z,1.50
2022-11-24T04:20:15.212Z,1.60
2022-11-24T04:22:43.202Z,1.60
2022-11-24T04:25:11.544Z,1.60
2022-11-24T04:27:39.718Z,2.00
2022-11-24T04:30:07.972Z,1.63
2022-11-24T04:32:35.310Z,1.90
2022-11-24T04:35:02.824Z,1.60
2022-11-24T04:37:30.078Z,1.73
2022-11-24T04:39:57.507Z,2.10
2022-11-24T04:42:24.760Z,1.73
2022-11-24T04:44:52.159Z,1.80
2022-11-24T04:47:22.975Z,1.90
2022-11-24T04:49:50.915Z,2.03
2022-11-24T04:52:19.787Z,1.67
2022-11-24T04:54:48.328Z,1.77
2022-11-24T04:57:21.438Z,1.90
2022-11-24T04:59:50.307Z,1.97
2022-11-24T05:02:18.093Z,1.87
2022-11-24T05:04:45.870Z,2.10
2022-11-24T05:07:19.104Z,1.93
2022-11-24T05:10:06.199Z,2.00
2022-11-24T05:12:33.765Z,2.10
2022-11-24T05:15:02.517Z,1.93
2022-11-24T05:17:37.202Z,2.00
2022-11-24T05:20:06.604Z,1.93
2022-11-24T05:22:34.253Z,1.90
2022-11-24T05:25:02.016Z,2.17
2022-11-24T05:27:29.254Z,2.03
2022-11-24T05:29:56.793Z,2.20
2022-11-24T05:32:24.326Z,1.97
2022-11-24T05:34:53.156Z,2.20
2022-11-24T05:37:20.874Z,2.03
2022-11-24T05:39:48.075Z,1.90
2022-11-24T05:42:33.958Z,2.00
2022-11-24T05:45:01.259Z,2.00
2022-11-24T05:47:28.541Z,2.00
2022-11-24T05:49:55.787Z,2.43
2022-11-24T05:52:23.047Z,2.30
2022-11-24T05:54:50.548Z,2.50
2022-11-24T05:57:18.524Z,2.20
2022-11-24T05:59:46.062Z,2.27
2022-11-24T06:02:14.253Z,2.13
2022-11-24T06:04:41.618Z,2.60
2022-11-24T06:07:11.455Z,2.80
2022-11-24T06:09:39.842Z,2.57
2022-11-24T06:12:07.837Z,2.77
2022-11-24T06:14:35.631Z,2.27
2022-11-24T06:17:03.880Z,3.03
2022-11-24T06:19:31.980Z,2.53
2022-11-24T06:21:59.236Z,2.20
2022-11-24T06:24:26.422Z,2.30
2022-11-24T06:26:53.818Z,2.10
2022-11-24T06:29:21.438Z,2.43
2022-11-24T06:31:48.824Z,2.27
2022-11-24T06:34:16.017Z,2.00
2022-11-24T06:36:43.177Z,2.00
2022-11-24T06:39:10.716Z,1.93
2022-11-24T06:41:38.246Z,1.97
2022-11-24T06:44:05.774Z,1.87
2022-11-24T06:46:32.931Z,1.83
2022-11-24T06:49:00.772Z,1.80
2022-11-24T06:51:28.214Z,1.80
2022-11-24T06:53:55.548Z,2.13
2022-11-24T06:56:22.816Z,1.90
2022-11-24T06:58:52.219Z,1.90
2022-11-24T07:01:22.200Z,1.90
2022-11-24T07:03:50.346Z,1.90
2022-11-24T07:06:18.689Z,2.00
2022-11-24T07:08:46.412Z,2.50
2022-11-24T07:11:16.669Z,2.40
2022-11-24T07:13:45.236Z,2.50
2022-11-24T07:16:15.394Z,2.40
2022-11-24T07:18:43.540Z,2.40
2022-11-24T07:21:11.407Z,2.77
2022-11-24T07:23:38.743Z,2.40
2022-11-24T07:26:07.420Z,2.20
2022-11-24T07:28:36.733Z,2.73
2022-11-24T07:31:12.703Z,2.70
2022-11-24T07:33:40.290Z,3.10
2022-11-24T07:36:09.134Z,2.77
2022-11-24T07:38:36.895Z,2.80
2022-11-24T07:41:10.067Z,2.70
2022-11-24T07:43:38.292Z,2.90
2022-11-24T07:46:08.362Z,2.77
2022-11-24T07:48:36.113Z,2.80
2022-11-24T07:51:04.858Z,2.50
2022-11-24T07:53:33.018Z,2.83
2022-11-24T07:56:02.022Z,2.53
2022-11-24T07:58:33.021Z,3.10
2022-11-24T08:01:01.278Z,2.93
2022-11-24T08:03:28.708Z,2.90
2022-11-24T08:08:48.137Z,2.37
2022-11-24T08:11:18.010Z,2.57
2022-11-24T08:13:45.369Z,2.63
2022-11-24T08:16:15.377Z,2.70
2022-11-24T08:18:43.017Z,2.90
2022-11-24T08:21:14.610Z,2.47
2022-11-24T08:23:42.113Z,2.70
2022-11-24T08:26:13.971Z,2.33
2022-11-24T08:28:41.220Z,2.60
2022-11-24T08:31:14.243Z,2.50
2022-11-24T08:33:42.163Z,2.27
2022-11-24T08:36:11.924Z,2.43
2022-11-24T08:38:39.751Z,2.13
2022-11-24T08:41:09.100Z,2.20
2022-11-24T08:43:36.608Z,2.30
2022-11-24T08:46:10.140Z,1.93
2022-11-24T08:48:37.739Z,2.10
2022-11-24T08:51:13.164Z,1.97
2022-11-24T08:53:40.995Z,2.30
2022-11-24T08:56:09.543Z,2.60
2022-11-24T08:58:38.256Z,2.03
2022-11-24T09:01:08.925Z,1.90
2022-11-24T09:03:37.846Z,2.10
2022-11-24T09:06:06.987Z,2.03
2022-11-24T09:08:34.322Z,2.23
2022-11-24T09:11:02.972Z,2.07
2022-11-24T09:13:30.582Z,2.30
2022-11-24T09:16:02.176Z,2.27
2022-11-24T09:18:30.512Z,2.47
2022-11-24T09:21:19.982Z,2.30
2022-11-24T09:23:49.238Z,2.53
2022-11-24T09:26:19.441Z,2.50
2022-11-24T09:28:47.275Z,2.10
2022-11-24T09:31:17.270Z,2.10
2022-11-24T09:33:45.551Z,2.17
2022-11-24T09:36:13.713Z,2.17
2022-11-24T09:38:41.321Z,2.10
2022-11-24T09:41:34.134Z,2.27
2022-11-24T09:44:23.062Z,2.33
2022-11-24T09:47:09.304Z,2.27
2022-11-24T09:49:54.760Z,2.50
2022-11-24T09:52:41.579Z,2.10
2022-11-24T09:55:33.376Z,2.07
2022-11-24T09:58:42.346Z,2.20
2022-11-24T10:01:19.410Z,2.10
2022-11-24T10:03:50.458Z,1.90
2022-11-24T10:06:35.087Z,1.90
2022-11-24T10:09:21.902Z,1.60
2022-11-24T10:12:21.566Z,1.60
2022-11-24T10:14:52.519Z,1.70
2022-11-24T10:17:54.440Z,1.40
2022-11-24T10:20:30.653Z,1.30
2022-11-24T10:23:11.030Z,1.27
2022-11-24T10:25:50.411Z,1.30
2022-11-24T10:28:17.869Z,1.47
2022-11-24T10:30:45.274Z,1.10
2022-11-24T10:33:28.829Z,1.27
2022-11-24T10:36:07.842Z,1.20
2022-11-24T10:38:56.999Z,1.23
2022-11-24T10:41:33.982Z,1.43
2022-11-24T10:44:01.217Z,1.30
2022-11-24T10:46:30.646Z,0.93
2022-11-24T10:49:05.228Z,0.97
2022-11-24T10:52:08.390Z,1.20
2022-11-24T10:54:36.246Z,1.13
2022-11-24T10:57:04.080Z,1.10
2022-11-24T10:59:39.589Z,1.00
2022-11-24T11:02:34.925Z,1.00
2022-11-24T11:05:27.289Z,1.10
2022-11-24T11:08:27.306Z,1.13
2022-11-24T11:11:18.871Z,1.20
2022-11-24T11:14:03.983Z,1.10
2022-11-24T11:16:53.005Z,1.27
2022-11-24T11:19:49.783Z,1.47
2022-11-24T11:22:32.247Z,1.50
2022-11-24T11:25:33.291Z,1.47
2022-11-24T11:28:30.104Z,1.63
2022-11-24T11:34:06.174Z,1.30
2022-11-24T11:36:49.314Z,1.60
2022-11-24T11:39:25.730Z,1.27
2022-11-24T11:42:01.069Z,1.30
2022-11-24T11:44:57.732Z,1.40
2022-11-24T11:47:34.133Z,1.30
2022-11-24T11:50:01.370Z,1.10
2022-11-24T11:55:24.399Z,1.20
2022-11-24T11:58:05.131Z,1.03
2022-11-24T12:00:37.473Z,1.20
2022-11-24T12:03:23.985Z,1.13
2022-11-24T12:05:57.232Z,1.77
2022-11-24T12:09:18.571Z,1.13
2022-11-24T12:11:48.937Z,1.20
2022-11-24T12:14:30.785Z,1.20
2022-11-24T12:17:18.148Z,1.40
2022-11-24T12:19:57.228Z,1.40
2022-11-24T12:22:42.755Z,1.30
2022-11-24T12:25:48.717Z,1.40
2022-11-24T12:28:26.905Z,1.40
2022-11-24T12:31:08.759Z,1.33
2022-11-24T12:34:19.305Z,1.30
2022-11-24T12:37:15.893Z,1.30
2022-11-24T12:40:13.419Z,1.40
2022-11-24T12:43:34.299Z,1.20
2022-11-24T12:46:38.620Z,1.33
2022-11-24T12:49:58.868Z,1.40
2022-11-24T12:52:31.403Z,1.23
2022-11-24T12:54:59.920Z,1.53
2022-11-24T12:57:35.630Z,1.10
2022-11-24T13:00:22.586Z,1.40
2022-11-24T13:03:01.041Z,1.33
2022-11-24T13:05:50.302Z,1.30
2022-11-24T13:08:17.653Z,1.30
2022-11-24T13:11:00.105Z,1.47
2022-11-24T13:13:48.549Z,1.53
2022-11-24T13:19:15.039Z,1.40
2022-11-24T13:21:51.039Z,1.40
2022-11-24T13:24:22.160Z,1.50
2022-11-24T13:26:52.087Z,1.60
2022-11-24T13:29:28.774Z,1.67
2022-11-24T13:32:17.831Z,1.57
2022-11-24T13:34:49.998Z,1.40
2022-11-24T13:37:40.622Z,1.63
2022-11-24T13:40:14.271Z,1.47
2022-11-24T13:43:10.983Z,1.50
2022-11-24T13:45:45.330Z,1.37
2022-11-24T13:48:22.495Z,1.70
2022-11-24T13:50:50.127Z,1.57
2022-11-24T13:53:33.069Z,1.90
2022-11-24T13:56:06.128Z,1.73
2022-11-24T13:58:48.107Z,1.30
2022-11-24T14:01:15.310Z,1.30
2022-11-24T14:04:29.947Z,1.50
2022-11-24T14:06:52.510Z,1.10
2022-11-24T14:09:32.440Z,1.30
2022-11-24T14:12:20.456Z,1.60
2022-11-24T14:14:52.541Z,1.57
2022-11-24T14:17:23.295Z,1.40
2022-11-24T14:19:53.120Z,1.37
2022-11-24T14:22:43.871Z,1.30
2022-11-24T14:25:30.301Z,1.20
2022-11-24T14:27:59.423Z,1.30
2022-11-24T14:30:27.132Z,1.40
2022-11-24T14:33:02.414Z,1.70
2022-11-24T14:35:35.230Z,1.20
2022-11-24T14:38:04.617Z,1.13
2022-11-24T14:40:47.337Z,1.23
2022-11-24T14:43:22.850Z,1.43
2022-11-24T14:46:02.208Z,1.20
2022-11-24T14:48:54.108Z,1.20
2022-11-24T14:51:23.218Z,1.30
2022-11-24T14:54:15.237Z,1.07
2022-11-24T14:56:55.529Z,1.30
2022-11-24T14:59:29.720Z,1.40
2022-11-24T15:01:57.818Z,1.40
2022-11-24T15:07:23.522Z,1.40
2022-11-24T15:09:54.730Z,1.40
2022-11-24T15:12:29.046Z,1.47
2022-11-24T15:15:05.773Z,1.50
2022-11-24T15:17:33.614Z,1.70
2022-11-24T15:20:11.901Z,1.70
2022-11-24T15:22:42.170Z,1.40
2022-11-24T15:25:34.098Z,1.30
2022-11-24T15:28:01.792Z,1.63
2022-11-24T15:30:30.858Z,1.50
2022-11-24T15:32:59.388Z,1.93
2022-11-24T15:35:30.221Z,1.83
2022-11-24T15:37:57.648Z,1.80
2022-11-24T15:40:25.178Z,2.00
2022-11-24T15:42:59.608Z,2.07
2022-11-24T15:45:30.674Z,1.80
2022-11-24T15:47:58.049Z,2.03
2022-11-24T15:50:25.443Z,2.20
2022-11-24T15:52:52.983Z,2.30
2022-11-24T15:55:22.252Z,2.20
2022-11-24T15:57:50.075Z,2.47
2022-11-24T16:00:20.151Z,2.10
2022-11-24T16:02:47.847Z,2.30
2022-11-24T16:05:15.911Z,2.10
2022-11-24T16:07:43.803Z,2.17
2022-11-24T16:10:26.687Z,1.97
2022-11-24T16:12:53.836Z,1.90
2022-11-24T16:15:21.016Z,2.00
2022-11-24T16:17:48.534Z,2.40
2022-11-24T16:20:16.156Z,1.57
2022-11-24T16:22:43.519Z,1.87
2022-11-24T16:25:11.507Z,1.83
2022-11-24T16:27:39.006Z,2.10
2022-11-24T16:30:07.475Z,2.40
2022-11-24T16:32:35.109Z,1.87
2022-11-24T16:35:02.623Z,1.90
2022-11-24T16:37:32.250Z,1.97
2022-11-24T16:40:01.677Z,1.73
2022-11-24T16:42:30.015Z,1.50
2022-11-24T16:44:57.231Z,1.70
2022-11-24T16:47:24.500Z,1.67
2022-11-24T16:49:51.655Z,1.47
2022-11-24T16:52:18.914Z,1.40
2022-11-24T16:54:47.758Z,1.40
2022-11-24T16:57:15.846Z,1.70
2022-11-24T16:59:43.659Z,1.40
2022-11-24T17:02:32.758Z,1.20
2022-11-24T17:05:02.189Z,1.30
2022-11-24T17:07:29.653Z,1.60
2022-11-24T17:09:57.141Z,1.43
2022-11-24T17:12:24.369Z,1.70
2022-11-24T17:15:16.363Z,1.40
2022-11-24T17:17:55.224Z,1.47
2022-11-24T17:20:26.266Z,1.47
2022-11-24T17:22:54.411Z,1.37
2022-11-24T17:25:21.675Z,1.50
2022-11-24T17:27:48.900Z,1.27
2022-11-24T17:30:17.176Z,1.40
2022-11-24T17:32:44.387Z,1.40
2022-11-24T17:35:12.110Z,1.20
2022-11-24T17:37:39.308Z,1.60
2022-11-24T17:40:27.219Z,1.77
2022-11-24T17:42:59.275Z,1.60
2022-11-24T17:45:27.892Z,1.20
2022-11-24T17:47:56.239Z,1.57
2022-11-24T17:50:26.029Z,1.50
2022-11-24T17:52:54.153Z,1.80
2022-11-24T17:55:21.978Z,1.60
2022-11-24T17:57:49.459Z,1.90
2022-11-24T18:00:17.099Z,2.00
2022-11-24T18:02:44.235Z,1.70
2022-11-24T18:05:11.650Z,1.60
2022-11-24T18:07:38.826Z,1.70
2022-11-24T18:10:06.704Z,1.70
2022-11-24T18:12:33.883Z,1.60
2022-11-24T18:15:01.086Z,1.80
2022-11-24T18:17:29.891Z,1.50
2022-11-24T18:19:58.005Z,1.50
2022-11-24T18:22:50.029Z,1.60
2022-11-24T18:25:14.330Z,1.40
2022-11-24T18:27:44.235Z,1.33
2022-11-24T18:30:12.324Z,1.17
2022-11-24T18:32:39.531Z,1.10
2022-11-24T18:35:07.426Z,1.30
2022-11-24T18:37:36.862Z,1.23
2022-11-24T18:40:05.296Z,1.17
2022-11-24T18:42:32.824Z,1.23
2022-11-24T18:45:00.072Z,1.20
2022-11-24T18:47:27.247Z,1.13
2022-11-24T18:49:54.568Z,1.20
2022-11-24T18:52:21.927Z,1.40
2022-11-24T18:54:49.290Z,1.17
2022-11-24T18:57:16.441Z,2.47
2022-11-24T18:59:43.738Z,1.30
2022-11-24T19:02:13.611Z,1.10
2022-11-24T19:04:41.819Z,1.20
2022-11-24T19:07:11.220Z,1.30
2022-11-24T19:09:38.775Z,1.53
2022-11-24T19:12:07.786Z,1.20
2022-11-24T19:14:36.982Z,1.30
2022-11-24T19:17:05.279Z,1.30
2022-11-24T19:19:35.125Z,1.20
2022-11-24T19:22:06.663Z,1.17
2022-11-24T19:24:38.822Z,0.97
2022-11-24T19:27:09.584Z,1.13
2022-11-24T19:29:42.958Z,0.97
2022-11-24T19:32:11.063Z,1.20
2022-11-24T19:34:39.175Z,1.40
2022-11-24T19:37:06.389Z,1.10
2022-11-24T19:39:33.685Z,1.07
2022-11-24T19:42:01.321Z,1.33
2022-11-24T19:44:28.734Z,0.90
2022-11-24T19:46:56.243Z,1.00
2022-11-24T19:49:23.652Z,1.10
2022-11-24T19:51:50.943Z,1.13
2022-11-24T19:54:18.542Z,1.30
2022-11-24T19:56:45.895Z,1.47
2022-11-24T19:59:16.864Z,1.60
2022-11-24T20:01:45.547Z,1.27
2022-11-24T20:04:15.278Z,1.17
2022-11-24T20:06:47.578Z,1.17
2022-11-24T20:09:16.987Z,1.10
2022-11-24T20:11:45.063Z,1.40
2022-11-24T20:14:14.622Z,1.20
2022-11-24T20:16:41.986Z,1.30
2022-11-24T20:19:12.489Z,1.30
2022-11-24T20:21:41.634Z,1.20
2022-11-24T20:24:13.976Z,1.30
2022-11-24T20:26:44.328Z,1.47
2022-11-24T20:29:15.202Z,1.63
2022-11-24T20:31:48.710Z,1.70
2022-11-24T20:34:17.028Z,1.40
2022-11-24T20:36:46.149Z,1.53
2022-11-24T20:39:19.522Z,1.57
2022-11-24T20:41:46.800Z,1.40
2022-11-24T20:44:16.575Z,1.50
2022-11-24T20:46:46.205Z,1.57
2022-11-24T20:49:17.503Z,3.50
2022-11-24T20:51:47.999Z,2.10
2022-11-24T20:54:17.834Z,2.33
2022-11-24T20:56:46.709Z,1.40
2022-11-24T20:59:21.508Z,1.50
2022-11-24T21:01:50.428Z,1.50
2022-11-24T21:04:26.361Z,1.50
2022-11-24T21:06:56.686Z,1.50
2022-11-24T21:09:26.828Z,1.37
2022-11-24T21:11:55.351Z,1.40
2022-11-24T21:14:25.103Z,1.50
2022-11-24T21:16:54.096Z,1.47
2022-11-24T21:19:21.702Z,1.30
2022-11-24T21:21:49.351Z,1.33
2022-11-24T21:24:23.157Z,1.40
2022-11-24T21:26:52.879Z,1.47
2022-11-24T21:29:23.646Z,1.60
2022-11-24T21:31:51.419Z,1.40
2022-11-24T21:34:19.669Z,1.40
2022-11-24T21:36:47.684Z,1.30
2022-11-24T21:39:15.685Z,1.40
2022-11-24T21:41:43.398Z,1.30
2022-11-24T21:44:14.346Z,1.30
2022-11-24T21:46:48.133Z,1.17
2022-11-24T21:49:19.960Z,1.23
2022-11-24T21:51:47.945Z,1.13
2022-11-24T21:54:15.218Z,1.30
2022-11-24T21:56:42.431Z,1.20
2022-11-24T21:59:09.657Z,1.30
2022-11-24T22:01:36.772Z,1.17
2022-11-24T22:04:04.284Z,1.50
2022-11-24T22:06:33.423Z,1.23
2022-11-24T22:09:00.761Z,1.30
2022-11-24T22:11:27.890Z,1.30
2022-11-24T22:13:55.170Z,1.30
2022-11-24T22:16:24.475Z,1.80
2022-11-24T22:18:52.478Z,1.47
2022-11-24T22:21:24.427Z,1.40
2022-11-24T22:23:52.879Z,1.23
2022-11-24T22:26:22.891Z,1.50
2022-11-24T22:28:51.278Z,1.77
2022-11-24T22:31:21.531Z,1.47
2022-11-24T22:33:49.669Z,2.17
2022-11-24T22:36:18.775Z,1.70
2022-11-24T22:38:46.155Z,1.67
2022-11-24T22:41:15.621Z,1.90
2022-11-24T22:43:43.887Z,1.60
2022-11-24T22:46:17.203Z,1.20
2022-11-24T22:48:45.638Z,1.43
2022-11-24T22:51:19.067Z,1.60
2022-11-24T22:53:51.174Z,1.53
2022-11-24T22:56:19.830Z,1.60
2022-11-24T22:58:47.564Z,1.37
2022-11-24T23:01:23.433Z,1.20
2022-11-24T23:03:53.835Z,1.30
2022-11-24T23:06:27.872Z,1.10
2022-11-24T23:08:56.630Z,1.00
2022-11-24T23:11:37.412Z,1.40
2022-11-24T23:14:08.448Z,1.20
2022-11-24T23:16:35.803Z,1.20
2022-11-24T23:19:03.642Z,1.20
2022-11-24T23:21:33.901Z,1.07
2022-11-24T23:24:03.844Z,1.17
2022-11-24T23:26:37.251Z,1.20
2022-11-24T23:29:05.411Z,1.23
2022-11-24T23:31:33.227Z,1.10
2022-11-24T23:34:02.480Z,1.10
2022-11-24T23:36:30.498Z,1.30
2022-11-24T23:39:06.698Z,1.37
2022-11-24T23:41:34.274Z,1.20
2022-11-24T23:44:01.476Z,1.50
2022-11-24T23:46:29.123Z,1.20
2022-11-24T23:48:56.455Z,1.20
2022-11-24T23:51:29.409Z,1.30
2022-11-24T23:53:57.657Z,1.20
2022-11-24T23:56:27.740Z,1.63
2022-11-24T23:58:55.082Z,1.60
